Time;durP1;ratioP1;P1;durP2;ratioP2;P2;SDS_P1;SDS_P2;PMS_P1;PMS_P2;Temp;Humidity;BMP_temperature;BMP_pressure;BME280_temperature;BME280_humidity;BME280_pressure;Samples;Min_cycle;Max_cycle;Signal;HPM_P1;HPM_P2
2023/01/17 00:01:08;;;;;;;0.50;0.50;;;2.40;99.90;;;;;;5053456;28;20932;-72
2023/01/17 00:09:51;;;;;;;0.30;0.30;;;2.30;99.90;;;;;;5053359;28;20224;-71
2023/01/17 00:11:57;;;;;;;0.30;0.30;;;2.30;99.90;;;;;;5053453;28;20240;-70
2023/01/17 00:14:23;;;;;;;0.40;0.40;;;2.50;99.90;;;;;;5053425;28;20536;-68
2023/01/17 00:16:48;;;;;;;0.40;0.40;;;2.50;99.90;;;;;;5053428;28;20182;-71
2023/01/17 01:33:51;;;;;;;0.50;0.50;;;2.80;99.90;;;;;;5056040;28;20200;-70
2023/01/17 01:36:16;;;;;;;0.40;0.40;;;2.80;99.90;;;;;;5056106;28;20176;-72
2023/01/17 01:38:42;;;;;;;0.30;0.30;;;2.80;99.90;;;;;;5056132;28;20197;-71
2023/01/17 01:41:07;;;;;;;0.30;0.30;;;2.80;99.90;;;;;;5056217;28;20639;-73
2023/01/17 01:43:53;;;;;;;0.40;0.40;;;2.70;99.90;;;;;;5055819;28;20677;-72
2023/01/17 01:46:22;;;;;;;0.35;0.35;;;2.70;99.90;;;;;;5056020;28;20631;-71
2023/01/17 01:48:58;;;;;;;0.50;0.50;;;2.50;99.90;;;;;;5055785;28;20194;-71
2023/01/17 01:51:31;;;;;;;0.30;0.30;;;2.50;99.90;;;;;;5055633;28;20254;-72
2023/01/17 01:54:03;;;;;;;0.30;0.30;;;2.70;99.90;;;;;;5055526;28;20165;-70
2023/01/17 01:56:30;;;;;;;0.30;0.30;;;2.70;99.90;;;;;;5055950;28;20200;-71
2023/01/17 01:58:58;;;;;;;0.40;0.40;;;2.70;99.90;;;;;;5055564;28;20239;-71
2023/01/17 02:01:24;;;;;;;0.57;0.57;;;2.70;99.90;;;;;;5055899;28;20177;-71
2023/01/17 02:03:50;;;;;;;0.50;0.50;;;2.60;99.90;;;;;;5055514;28;20172;-72
2023/01/17 02:06:23;;;;;;;0.40;0.40;;;2.70;99.90;;;;;;5055569;28;20227;-68
2023/01/17 02:08:49;;;;;;;0.40;0.40;;;2.50;99.90;;;;;;5055583;28;20197;-71
2023/01/17 02:11:15;;;;;;;0.40;0.40;;;2.40;99.90;;;;;;5055744;28;20730;-72
2023/01/17 02:13:42;;;;;;;0.30;0.30;;;2.40;99.90;;;;;;5055374;28;20412;-71
2023/01/17 02:16:34;;;;;;;0.30;0.30;;;2.50;99.90;;;;;;5055542;28;20220;-73
2023/01/17 02:19:17;;;;;;;0.30;0.30;;;2.50;99.90;;;;;;5055163;28;20280;-69
2023/01/17 02:21:49;;;;;;;0.40;0.40;;;2.50;99.90;;;;;;5055362;28;20259;-70
2023/01/17 02:24:32;;;;;;;0.35;0.35;;;2.60;99.90;;;;;;5055359;28;20174;-72
2023/01/17 02:27:06;;;;;;;0.68;0.68;;;2.70;99.90;;;;;;5055510;28;20176;-71
2023/01/17 02:29:40;;;;;;;0.30;0.30;;;2.70;99.80;;;;;;5055279;28;20161;-72
2023/01/17 02:32:13;;;;;;;0.30;0.30;;;2.70;99.60;;;;;;5053665;28;20176;-71
2023/01/17 02:34:52;;;;;;;0.30;0.30;;;2.80;99.80;;;;;;5055227;28;20180;-72
2023/01/17 02:37:39;;;;;;;0.30;0.30;;;2.80;99.80;;;;;;5055079;28;20577;-72
2023/01/17 02:40:26;;;;;;;0.50;0.50;;;2.80;99.80;;;;;;5054977;28;20207;-70
2023/01/17 02:42:58;;;;;;;0.50;0.50;;;2.80;99.50;;;;;;5054682;28;20542;-70
2023/01/17 02:45:24;;;;;;;0.30;0.30;;;2.80;99.50;;;;;;5054434;28;20548;-72
2023/01/17 02:47:49;;;;;;;0.73;0.73;;;2.80;99.40;;;;;;5054725;28;20189;-73
2023/01/17 02:50:21;;;;;;;0.30;0.30;;;2.90;99.30;;;;;;5054649;28;20246;-69
2023/01/17 02:53:08;;;;;;;0.40;0.40;;;2.90;99.30;;;;;;5054763;28;20522;-73
2023/01/17 02:55:57;;;;;;;0.40;0.40;;;2.90;99.20;;;;;;5054748;28;20170;-72
2023/01/17 02:58:32;;;;;;;0.30;0.30;;;3.00;99.20;;;;;;5054474;28;20220;-71
2023/01/17 03:01:16;;;;;;;0.40;0.40;;;3.10;99.10;;;;;;5054757;28;20234;-68
2023/01/17 03:04:12;;;;;;;0.40;0.40;;;3.10;99.00;;;;;;5054473;28;20162;-71
2023/01/17 03:06:47;;;;;;;0.30;0.30;;;3.00;99.10;;;;;;5053746;28;20588;-70
2023/01/17 03:09:14;;;;;;;0.30;0.30;;;3.00;99.10;;;;;;5054271;28;20284;-72
2023/01/17 03:11:41;;;;;;;0.40;0.40;;;3.00;99.10;;;;;;5054146;28;20236;-70
2023/01/17 03:14:07;;;;;;;0.38;0.38;;;3.00;99.10;;;;;;5054384;28;20181;-72
2023/01/17 03:16:33;;;;;;;0.40;0.40;;;3.00;99.10;;;;;;5054406;28;20174;-73
2023/01/17 03:18:59;;;;;;;0.70;0.70;;;3.00;99.00;;;;;;5054107;28;20244;-70
2023/01/17 03:21:25;;;;;;;0.40;0.40;;;3.00;98.90;;;;;;5054427;28;20189;-69
2023/01/17 03:23:50;;;;;;;0.87;0.87;;;3.00;98.80;;;;;;5053983;28;20169;-69
2023/01/17 03:26:16;;;;;;;0.30;0.30;;;3.00;99.20;;;;;;5054162;28;20173;-70
2023/01/17 03:28:42;;;;;;;0.30;0.30;;;3.00;99.00;;;;;;5052710;28;20562;-73
2023/01/17 03:31:08;;;;;;;0.37;0.37;;;3.00;99.20;;;;;;5054083;28;20564;-71
2023/01/17 03:33:33;;;;;;;0.30;0.30;;;3.00;99.30;;;;;;5053739;28;20162;-72
2023/01/17 03:35:59;;;;;;;0.40;0.40;;;3.00;99.50;;;;;;5054079;28;20397;-70
2023/01/17 03:38:28;;;;;;;0.40;0.40;;;2.90;99.30;;;;;;5053859;28;20676;-70
2023/01/17 03:40:54;;;;;;;0.30;0.30;;;2.90;99.10;;;;;;5053905;28;20204;-71
2023/01/17 03:43:19;;;;;;;0.33;0.33;;;2.80;99.10;;;;;;5053740;28;20198;-71
2023/01/17 03:45:49;;;;;;;0.40;0.40;;;2.80;99.30;;;;;;5053928;28;20758;-70
2023/01/17 03:48:15;;;;;;;0.38;0.38;;;2.80;99.20;;;;;;5054238;28;20197;-70
2023/01/17 03:50:40;;;;;;;2.60;2.50;;;2.80;99.40;;;;;;5052325;28;20231;-71
2023/01/17 03:53:06;;;;;;;0.30;0.30;;;2.70;99.50;;;;;;5053522;28;20623;-70
2023/01/17 03:55:31;;;;;;;0.40;0.40;;;2.70;99.60;;;;;;5053582;28;20174;-69
2023/01/17 03:57:57;;;;;;;0.40;0.40;;;2.60;99.70;;;;;;5052885;28;20186;-69
2023/01/17 04:00:23;;;;;;;1.43;1.33;;;2.70;99.90;;;;;;5053499;28;20177;-71
2023/01/17 04:02:48;;;;;;;0.47;0.47;;;2.70;99.80;;;;;;5053264;28;20177;-72
2023/01/17 04:05:14;;;;;;;0.30;0.30;;;2.70;99.60;;;;;;5053864;28;20189;-72
2023/01/17 04:07:40;;;;;;;0.30;0.30;;;2.50;99.50;;;;;;5053497;28;20277;-70
2023/01/17 04:10:06;;;;;;;0.50;0.50;;;2.40;99.80;;;;;;5052104;28;20554;-70
2023/01/17 04:12:31;;;;;;;0.32;0.32;;;2.40;99.90;;;;;;5053423;28;20400;-70
2023/01/17 04:14:57;;;;;;;0.50;0.50;;;2.30;99.90;;;;;;5053485;28;20176;-70
2023/01/17 04:17:23;;;;;;;0.40;0.40;;;2.30;99.90;;;;;;5053258;28;20646;-70
2023/01/17 04:19:49;;;;;;;0.30;0.30;;;2.40;99.90;;;;;;5053207;28;20185;-72
2023/01/17 04:22:15;;;;;;;0.40;0.40;;;2.40;99.80;;;;;;5053116;28;20170;-71
2023/01/17 04:24:40;;;;;;;0.30;0.30;;;2.40;99.60;;;;;;5053376;28;20694;-73
2023/01/17 04:27:06;;;;;;;0.30;0.30;;;2.40;99.50;;;;;;5053362;28;20223;-71
2023/01/17 04:29:32;;;;;;;0.40;0.40;;;2.40;99.40;;;;;;5053132;28;20208;-71
2023/01/17 04:31:57;;;;;;;0.30;0.30;;;2.30;99.70;;;;;;5053027;28;20172;-70
2023/01/17 04:34:23;;;;;;;0.40;0.40;;;2.30;99.40;;;;;;5053196;28;20686;-68
2023/01/17 04:36:48;;;;;;;0.37;0.37;;;2.20;99.30;;;;;;5053126;28;20162;-72
2023/01/17 04:39:14;;;;;;;0.30;0.30;;;2.00;99.10;;;;;;5053028;28;20314;-69
2023/01/17 04:41:40;;;;;;;0.30;0.30;;;2.00;99.10;;;;;;5052937;28;20234;-70
2023/01/17 04:44:05;;;;;;;0.33;0.33;;;1.80;99.10;;;;;;5053143;28;20172;-70
2023/01/17 04:46:31;;;;;;;0.33;0.33;;;1.60;99.30;;;;;;5053241;28;20204;-71
2023/01/17 04:48:58;;;;;;;0.30;0.30;;;1.50;99.30;;;;;;5053017;28;20215;-70
2023/01/17 04:51:23;;;;;;;0.30;0.30;;;1.30;99.40;;;;;;5053015;28;20191;-71
2023/01/17 04:53:49;;;;;;;0.30;0.30;;;1.30;99.80;;;;;;5052933;28;20230;-71
2023/01/17 04:56:14;;;;;;;0.30;0.30;;;1.20;99.90;;;;;;5053086;28;20174;-69
2023/01/17 04:58:40;;;;;;;0.30;0.30;;;1.30;99.90;;;;;;5052718;28;20187;-71
2023/01/17 05:01:07;;;;;;;1.23;0.53;;;1.20;99.90;;;;;;5052685;28;20174;-69
2023/01/17 05:03:33;;;;;;;0.38;0.38;;;1.10;99.80;;;;;;5052799;28;20174;-69
2023/01/17 05:05:59;;;;;;;0.30;0.30;;;1.00;99.80;;;;;;5053032;28;20692;-71
2023/01/17 05:08:25;;;;;;;0.40;0.40;;;1.00;99.80;;;;;;5054423;28;20659;-72
2023/01/17 05:10:51;;;;;;;0.37;0.37;;;0.90;99.80;;;;;;5056679;28;20201;-71
2023/01/17 05:13:17;;;;;;;0.40;0.40;;;0.70;99.80;;;;;;5056391;28;20172;-71
2023/01/17 05:15:43;;;;;;;0.30;0.30;;;0.50;99.90;;;;;;5056452;28;20172;-72
2023/01/17 05:18:13;;;;;;;0.30;0.30;;;0.40;99.90;;;;;;5056580;28;20262;-71
2023/01/17 05:20:39;;;;;;;0.30;0.30;;;0.50;99.90;;;;;;5056404;28;20182;-70
2023/01/17 05:23:04;;;;;;;0.30;0.30;;;0.60;99.90;;;;;;5056314;28;20241;-72
2023/01/17 05:25:31;;;;;;;0.40;0.40;;;0.60;99.90;;;;;;5056505;28;20636;-71
2023/01/17 05:28:00;;;;;;;0.30;0.30;;;0.50;99.90;;;;;;5054982;28;20194;-71
2023/01/17 05:30:28;;;;;;;0.30;0.30;;;0.40;99.90;;;;;;5056098;28;20765;-73
2023/01/17 05:32:55;;;;;;;0.30;0.30;;;0.20;99.90;;;;;;5056092;28;20180;-70
2023/01/17 05:35:25;;;;;;;0.30;0.30;;;0.20;99.90;;;;;;5056232;28;20189;-69
2023/01/17 05:37:51;;;;;;;0.38;0.38;;;0.30;99.90;;;;;;5056231;28;20653;-72
2023/01/17 05:40:26;;;;;;;0.40;0.40;;;0.30;99.90;;;;;;5056046;28;20185;-70
2023/01/17 05:42:53;;;;;;;0.40;0.40;;;0.20;99.90;;;;;;5055813;28;20205;-69
2023/01/17 05:45:20;;;;;;;0.30;0.30;;;0.20;99.90;;;;;;5055998;28;20179;-72
2023/01/17 05:47:48;;;;;;;0.30;0.30;;;0.30;99.90;;;;;;5055802;28;20189;-70
2023/01/17 05:50:20;;;;;;;0.40;0.40;;;0.30;99.90;;;;;;5055774;28;20213;-70
2023/01/17 05:52:53;;;;;;;0.30;0.30;;;0.30;99.90;;;;;;5055721;28;20224;-69
2023/01/17 05:55:20;;;;;;;0.30;0.30;;;0.30;99.90;;;;;;5056083;28;20178;-69
2023/01/17 05:57:46;;;;;;;0.30;0.30;;;0.40;99.90;;;;;;5055864;28;20646;-70
2023/01/17 06:00:13;;;;;;;0.30;0.30;;;0.40;99.90;;;;;;5055763;28;20178;-71
2023/01/17 06:02:39;;;;;;;0.35;0.35;;;0.40;99.90;;;;;;5055457;28;20875;-72
2023/01/17 06:05:05;;;;;;;0.30;0.30;;;0.30;99.90;;;;;;5055787;28;20174;-71
2023/01/17 06:07:31;;;;;;;0.40;0.40;;;0.30;99.90;;;;;;5055676;28;20197;-69
2023/01/17 06:09:56;;;;;;;0.40;0.40;;;0.20;99.90;;;;;;5055223;28;20202;-71
2023/01/17 06:12:22;;;;;;;1.90;0.70;;;0.30;99.90;;;;;;5055295;28;20408;-70
2023/01/17 06:14:48;;;;;;;0.30;0.30;;;0.40;99.90;;;;;;5055509;28;20163;-71
2023/01/17 06:17:13;;;;;;;0.30;0.30;;;0.40;99.90;;;;;;5054169;28;20720;-69
2023/01/17 06:19:39;;;;;;;0.33;0.33;;;0.40;99.90;;;;;;5054278;28;20182;-69
2023/01/17 06:22:04;;;;;;;0.40;0.40;;;0.40;99.90;;;;;;5055267;28;20224;-70
2023/01/17 06:24:30;;;;;;;0.30;0.30;;;0.30;99.90;;;;;;5055924;28;20631;-71
2023/01/17 06:26:56;;;;;;;0.30;0.30;;;0.30;99.90;;;;;;5055247;28;20172;-72
2023/01/17 06:29:22;;;;;;;0.30;0.30;;;0.30;99.90;;;;;;5055042;28;20731;-72
2023/01/17 06:31:48;;;;;;;2.47;0.63;;;0.30;99.90;;;;;;5053671;28;20210;-70
2023/01/17 06:34:13;;;;;;;0.30;0.30;;;0.30;99.90;;;;;;5055293;28;20175;-71
2023/01/17 06:36:39;;;;;;;0.50;0.50;;;0.20;99.90;;;;;;5055185;28;20169;-69
2023/01/17 06:39:04;;;;;;;0.30;0.30;;;0.10;99.90;;;;;;5054883;28;20190;-71
2023/01/17 06:41:30;;;;;;;0.30;0.30;;;0.20;99.90;;;;;;5054955;28;20228;-72
2023/01/17 06:43:56;;;;;;;0.30;0.30;;;0.10;99.90;;;;;;5054776;28;20182;-72
2023/01/17 06:46:22;;;;;;;0.30;0.30;;;0.10;99.90;;;;;;5054915;28;20556;-70
2023/01/17 06:48:48;;;;;;;0.98;0.98;;;0.10;99.90;;;;;;5053401;28;20695;-71
2023/01/17 06:51:14;;;;;;;0.30;0.30;;;0.10;99.90;;;;;;5054737;28;20281;-72
2023/01/17 06:53:40;;;;;;;0.30;0.30;;;0.20;99.70;;;;;;5054487;28;20635;-71
2023/01/17 06:56:07;;;;;;;0.30;0.30;;;0.20;99.30;;;;;;5054629;28;20527;-72
2023/01/17 06:58:33;;;;;;;0.40;0.40;;;0.10;99.20;;;;;;5054479;28;20213;-69
2023/01/17 07:01:05;;;;;;;0.40;0.40;;;0.00;99.30;;;;;;5055106;28;20590;-69
2023/01/17 07:03:31;;;;;;;0.30;0.30;;;-0.10;99.50;;;;;;5054359;28;20496;-70
2023/01/17 07:05:59;;;;;;;0.40;0.40;;;-0.10;99.70;;;;;;5054568;28;20651;-71
2023/01/17 07:08:25;;;;;;;0.30;0.30;;;-0.10;99.70;;;;;;5054258;28;20232;-69
2023/01/17 07:10:50;;;;;;;0.40;0.40;;;-0.20;99.60;;;;;;5054332;28;20210;-69
2023/01/17 07:13:16;;;;;;;0.40;0.30;;;-0.30;99.70;;;;;;5054223;28;20632;-72
2023/01/17 07:15:41;;;;;;;0.30;0.30;;;-0.30;99.90;;;;;;5054397;28;20179;-71
2023/01/17 07:18:07;;;;;;;0.30;0.30;;;-0.20;99.70;;;;;;5053048;28;20649;-70
2023/01/17 07:20:33;;;;;;;0.30;0.30;;;-0.20;99.60;;;;;;5054015;28;20194;-68
2023/01/17 07:22:59;;;;;;;0.30;0.30;;;-0.20;99.80;;;;;;5053914;28;20182;-69
2023/01/17 07:25:24;;;;;;;0.30;0.30;;;-0.20;99.90;;;;;;5054100;28;20221;-69
2023/01/17 07:27:56;;;;;;;0.60;0.60;;;-0.10;99.90;;;;;;5052713;28;20424;-70
2023/01/17 07:30:22;;;;;;;1.05;0.82;;;-0.10;99.90;;;;;;5053847;28;20448;-71
2023/01/17 07:32:54;;;;;;;0.40;0.40;;;0.00;99.90;;;;;;5053828;28;20742;-71
2023/01/17 07:35:21;;;;;;;0.70;0.70;;;0.20;99.90;;;;;;5053907;28;20540;-71
2023/01/17 07:37:48;;;;;;;0.30;0.30;;;0.20;99.90;;;;;;5054005;28;20194;-69
2023/01/17 07:40:16;;;;;;;0.30;0.30;;;0.30;99.90;;;;;;5053917;28;20553;-71
2023/01/17 07:42:42;;;;;;;0.40;0.40;;;0.40;99.90;;;;;;5053851;28;20182;-69
2023/01/17 07:45:09;;;;;;;0.93;0.93;;;0.50;99.90;;;;;;5053916;28;20640;-73
2023/01/17 07:47:34;;;;;;;1.08;1.08;;;0.70;99.90;;;;;;5053870;28;20221;-70
2023/01/17 07:50:01;;;;;;;1.00;0.80;;;0.80;99.60;;;;;;5053653;28;20195;-69
2023/01/17 07:52:27;;;;;;;0.43;0.43;;;0.80;99.70;;;;;;5053527;28;20160;-69
2023/01/17 07:54:52;;;;;;;0.30;0.30;;;0.90;99.90;;;;;;5053714;28;20175;-70
2023/01/17 07:57:18;;;;;;;0.30;0.30;;;1.00;99.90;;;;;;5053586;28;20194;-70
2023/01/17 07:59:44;;;;;;;0.30;0.30;;;1.20;99.90;;;;;;5053549;28;20177;-71
2023/01/17 08:02:22;;;;;;;0.30;0.30;;;1.40;99.90;;;;;;5053424;28;20180;-70
2023/01/17 08:04:48;;;;;;;0.85;0.63;;;1.50;99.70;;;;;;5053758;28;20194;-70
2023/01/17 08:07:14;;;;;;;0.60;0.60;;;1.60;99.70;;;;;;5053387;28;20181;-70
2023/01/17 08:09:41;;;;;;;0.30;0.30;;;1.70;99.70;;;;;;5053505;28;20165;-71
2023/01/17 08:12:07;;;;;;;0.40;0.40;;;1.90;99.40;;;;;;5053367;28;20515;-72
2023/01/17 08:14:33;;;;;;;0.30;0.30;;;2.00;99.00;;;;;;5053617;28;20382;-70
2023/01/17 08:17:20;;;;;;;0.40;0.40;;;2.10;99.00;;;;;;5053331;28;20403;-68
2023/01/17 08:19:48;;;;;;;0.30;0.30;;;2.20;99.10;;;;;;5053528;28;20258;-71
2023/01/17 08:22:14;;;;;;;0.40;0.40;;;2.30;99.10;;;;;;5053283;28;20169;-69
2023/01/17 08:24:40;;;;;;;0.30;0.30;;;2.50;99.00;;;;;;5053470;28;20172;-71
2023/01/17 08:27:07;;;;;;;0.30;0.30;;;2.60;98.80;;;;;;5053400;28;20496;-70
2023/01/17 08:29:34;;;;;;;0.40;0.40;;;2.70;98.70;;;;;;5053166;28;20189;-69
2023/01/17 08:31:59;;;;;;;0.40;0.40;;;2.80;98.50;;;;;;5051864;28;20249;-71
2023/01/17 08:34:25;;;;;;;2.30;0.80;;;2.90;98.20;;;;;;5053581;28;20262;-69
2023/01/17 08:36:54;;;;;;;1.93;1.77;;;3.00;98.10;;;;;;5053358;28;20170;-72
2023/01/17 08:39:20;;;;;;;0.50;0.50;;;3.10;97.80;;;;;;5053075;28;20582;-70
2023/01/17 08:41:46;;;;;;;0.50;0.50;;;3.10;97.30;;;;;;5053106;28;20542;-67
2023/01/17 08:44:12;;;;;;;0.40;0.40;;;3.00;97.10;;;;;;5056167;28;20166;-71
2023/01/17 08:46:39;;;;;;;0.45;0.45;;;3.00;97.40;;;;;;5057298;28;20419;-70
2023/01/17 08:49:05;;;;;;;2.80;2.70;;;3.10;97.50;;;;;;5056917;28;20190;-71
2023/01/17 08:51:31;;;;;;;5.07;4.70;;;3.30;97.50;;;;;;5057032;28;20208;-71
2023/01/17 08:53:57;;;;;;;2.03;1.98;;;3.30;97.30;;;;;;5056953;28;20170;-69
2023/01/17 08:56:24;;;;;;;0.50;0.50;;;3.50;97.00;;;;;;5056959;28;20189;-71
2023/01/17 08:58:50;;;;;;;0.60;0.60;;;3.60;96.60;;;;;;5056851;28;20182;-72
2023/01/17 09:01:16;;;;;;;0.40;0.40;;;3.70;96.50;;;;;;5056803;28;20171;-69
2023/01/17 09:03:41;;;;;;;1.03;1.03;;;3.90;96.30;;;;;;5056749;28;20194;-71
2023/01/17 09:06:10;;;;;;;0.50;0.50;;;4.10;96.00;;;;;;5056933;28;20401;-69
2023/01/17 09:08:36;;;;;;;3.25;1.30;;;4.40;95.70;;;;;;5056720;28;20580;-72
2023/01/17 09:11:09;;;;;;;0.30;0.30;;;4.70;95.60;;;;;;5056468;28;20206;-72
2023/01/17 09:13:35;;;;;;;0.75;0.75;;;4.80;95.00;;;;;;5056459;28;20185;-72
2023/01/17 09:16:02;;;;;;;0.40;0.40;;;4.90;94.20;;;;;;5056798;28;20533;-71
2023/01/17 09:18:29;;;;;;;0.70;0.70;;;4.90;93.00;;;;;;5056665;28;20986;-72
2023/01/17 09:20:57;;;;;;;0.47;0.47;;;4.90;93.20;;;;;;5055020;28;20697;-70
2023/01/17 09:23:24;;;;;;;0.40;0.40;;;4.90;93.20;;;;;;5056193;28;20170;-72
2023/01/17 09:25:58;;;;;;;0.32;0.32;;;4.90;93.20;;;;;;5056328;28;20257;-69
2023/01/17 09:28:25;;;;;;;0.40;0.40;;;4.90;93.50;;;;;;5056411;28;20201;-72
2023/01/17 09:30:51;;;;;;;0.30;0.30;;;4.80;93.40;;;;;;5056237;28;20208;-70
2023/01/17 09:33:17;;;;;;;0.40;0.40;;;4.60;93.60;;;;;;5056001;28;20166;-72
2023/01/17 09:35:44;;;;;;;0.80;0.80;;;4.70;93.70;;;;;;5056330;28;20576;-71
2023/01/17 09:38:10;;;;;;;0.40;0.40;;;4.70;93.80;;;;;;5056076;28;20190;-69
2023/01/17 09:40:41;;;;;;;1.00;0.93;;;4.60;93.40;;;;;;5056102;28;20533;-70
2023/01/17 09:43:34;;;;;;;0.38;0.38;;;4.20;94.30;;;;;;5055978;28;20287;-70
2023/01/17 09:46:00;;;;;;;0.40;0.40;;;4.10;94.90;;;;;;5045748;28;20196;-70
2023/01/17 09:48:39;;;;;;;0.40;0.40;;;4.10;95.30;;;;;;5056010;28;20260;-69
2023/01/17 09:51:23;;;;;;;0.38;0.38;;;4.30;95.50;;;;;;5056044;28;20205;-73
2023/01/17 09:53:50;;;;;;;0.40;0.40;;;4.50;95.00;;;;;;5055166;28;20174;-71
2023/01/17 09:56:30;;;;;;;0.40;0.40;;;4.50;94.40;;;;;;5055173;28;20529;-70
2023/01/17 09:59:17;;;;;;;0.50;0.50;;;4.70;94.20;;;;;;5054796;28;20198;-71
2023/01/17 10:01:54;;;;;;;0.40;0.40;;;4.70;93.50;;;;;;5055582;28;20200;-70
2023/01/17 10:04:50;;;;;;;0.40;0.40;;;4.80;93.60;;;;;;5055792;28;20582;-72
2023/01/17 10:07:49;;;;;;;0.30;0.30;;;4.70;93.40;;;;;;5055707;28;20166;-72
2023/01/17 10:10:27;;;;;;;0.40;0.40;;;4.70;93.40;;;;;;5055687;28;20643;-68
2023/01/17 10:13:07;;;;;;;0.50;0.50;;;4.80;92.90;;;;;;5055374;28;20253;-72
2023/01/17 10:15:51;;;;;;;0.85;0.85;;;5.00;92.70;;;;;;5055658;28;20203;-70
2023/01/17 10:18:38;;;;;;;0.40;0.40;;;5.10;92.20;;;;;;5054044;28;20693;-72
2023/01/17 10:21:04;;;;;;;0.60;0.60;;;5.10;91.70;;;;;;5055449;28;20196;-72
2023/01/17 10:23:35;;;;;;;0.30;0.30;;;5.00;92.00;;;;;;5055379;28;20245;-71
2023/01/17 10:26:06;;;;;;;0.40;0.40;;;4.90;92.50;;;;;;5055376;28;20170;-72
2023/01/17 10:28:47;;;;;;;0.40;0.40;;;4.90;92.50;;;;;;5055340;28;20270;-73
2023/01/17 10:31:24;;;;;;;0.40;0.40;;;4.70;92.70;;;;;;5055172;28;20751;-69
2023/01/17 10:34:02;;;;;;;0.43;0.43;;;4.80;93.50;;;;;;5055064;28;20173;-69
2023/01/17 10:36:39;;;;;;;0.38;0.38;;;4.80;93.00;;;;;;5054953;28;20173;-70
2023/01/17 10:39:25;;;;;;;0.40;0.40;;;4.80;93.00;;;;;;5055289;28;20186;-69
2023/01/17 10:42:02;;;;;;;0.30;0.30;;;4.80;93.10;;;;;;5054743;28;20247;-70
2023/01/17 10:44:59;;;;;;;0.75;0.75;;;4.90;92.40;;;;;;5055045;28;20188;-72
2023/01/17 10:47:30;;;;;;;0.50;0.50;;;4.70;92.70;;;;;;5054706;28;20194;-72
2023/01/17 10:49:58;;;;;;;0.40;0.40;;;4.60;92.70;;;;;;5054858;28;20186;-71
2023/01/17 10:52:47;;;;;;;0.40;0.40;;;4.70;92.90;;;;;;5054624;28;20224;-72
2023/01/17 10:55:34;;;;;;;0.40;0.40;;;4.90;92.10;;;;;;5054863;28;20582;-70
2023/01/17 10:58:01;;;;;;;0.40;0.40;;;5.10;92.00;;;;;;5054892;28;20650;-71
2023/01/17 11:00:31;;;;;;;2.05;1.95;;;5.20;91.40;;;;;;5054642;28;20181;-70
2023/01/17 11:02:59;;;;;;;0.40;0.40;;;5.20;91.70;;;;;;5054405;28;20590;-73
2023/01/17 11:05:27;;;;;;;0.60;0.60;;;5.30;90.90;;;;;;5053886;28;20186;-70
2023/01/17 11:08:02;;;;;;;0.30;0.30;;;5.20;90.80;;;;;;5053043;28;20189;-72
2023/01/17 11:10:44;;;;;;;0.50;0.50;;;5.20;91.40;;;;;;5054325;28;20280;-72
2023/01/17 11:13:18;;;;;;;0.40;0.40;;;5.30;91.70;;;;;;5054365;28;20167;-69
2023/01/17 11:15:50;;;;;;;0.40;0.40;;;5.20;91.80;;;;;;5054940;28;20165;-69
2023/01/17 11:18:19;;;;;;;0.40;0.40;;;5.20;91.80;;;;;;5054070;28;20194;-69
2023/01/17 11:20:45;;;;;;;0.65;0.65;;;5.00;91.80;;;;;;5054143;28;20592;-73
2023/01/17 11:23:19;;;;;;;0.30;0.30;;;5.00;91.80;;;;;;5053974;28;20262;-70
2023/01/17 11:25:57;;;;;;;0.40;0.40;;;5.00;92.10;;;;;;5053002;28;20713;-72
2023/01/17 11:28:24;;;;;;;0.55;0.55;;;5.10;92.60;;;;;;5054052;28;20201;-70
2023/01/17 11:30:54;;;;;;;0.40;0.40;;;5.00;93.50;;;;;;5054147;28;20278;-71
2023/01/17 11:33:46;;;;;;;0.30;0.30;;;4.80;93.90;;;;;;5053856;28;20167;-71
2023/01/17 11:36:27;;;;;;;0.40;0.40;;;4.60;94.50;;;;;;5054291;28;20194;-73
2023/01/17 11:39:26;;;;;;;0.50;0.50;;;4.70;94.80;;;;;;5054014;28;20216;-72
2023/01/17 11:41:52;;;;;;;0.40;0.40;;;4.60;94.00;;;;;;5053910;28;20188;-72
2023/01/17 11:44:30;;;;;;;0.38;0.38;;;4.60;94.50;;;;;;5053870;28;20183;-72
2023/01/17 11:47:11;;;;;;;0.70;0.70;;;4.60;93.60;;;;;;5053943;28;20175;-70
2023/01/17 11:49:38;;;;;;;0.30;0.30;;;4.70;92.50;;;;;;5053630;28;20177;-73
2023/01/17 11:52:46;;;;;;;0.40;0.40;;;4.80;92.20;;;;;;5053457;28;20647;-70
2023/01/17 11:55:14;;;;;;;0.40;0.40;;;4.80;92.20;;;;;;5031735;28;20214;-72
2023/01/17 11:57:40;;;;;;;0.80;0.80;;;4.90;91.80;;;;;;5049509;28;20666;-73
2023/01/17 12:00:31;;;;;;;0.33;0.33;;;4.90;91.50;;;;;;5053579;28;20186;-71
2023/01/17 12:03:24;;;;;;;0.40;0.40;;;4.90;91.20;;;;;;5053452;28;20566;-70
2023/01/17 12:06:13;;;;;;;0.30;0.30;;;4.80;91.40;;;;;;5053692;28;20224;-72
2023/01/17 12:08:59;;;;;;;0.40;0.40;;;4.60;91.70;;;;;;5053348;28;20225;-71
2023/01/17 12:13:59;;;;;;;0.40;0.40;;;3.80;91.80;;;;;;5053691;28;20198;-71
2023/01/17 12:14:39;;;;;;;1.27;1.27;;;3.90;92.60;;;;;;5053459;28;20235;-70
2023/01/17 12:17:13;;;;;;;0.40;0.40;;;4.00;93.00;;;;;;5052714;28;20158;-70
2023/01/17 12:19:52;;;;;;;0.40;0.40;;;3.90;92.50;;;;;;5053095;28;20184;-70
2023/01/17 12:22:32;;;;;;;0.75;0.75;;;3.90;92.80;;;;;;5051987;28;20170;-71
2023/01/17 12:25:29;;;;;;;0.40;0.40;;;3.90;92.40;;;;;;5053611;28;20169;-72
2023/01/17 12:27:54;;;;;;;0.40;0.40;;;3.90;92.40;;;;;;5044908;28;20241;-72
2023/01/17 12:30:32;;;;;;;0.40;0.40;;;4.00;92.60;;;;;;5053183;28;20202;-70
2023/01/17 12:33:36;;;;;;;0.50;0.50;;;4.10;92.70;;;;;;5053137;28;20252;-73
2023/01/17 12:36:18;;;;;;;0.32;0.32;;;4.20;92.30;;;;;;5046710;28;20170;-69
2023/01/17 12:38:46;;;;;;;0.40;0.40;;;4.30;92.10;;;;;;5053374;28;20196;-71
2023/01/17 12:41:15;;;;;;;0.32;0.32;;;4.40;92.10;;;;;;5053140;28;20170;-71
2023/01/17 12:43:42;;;;;;;0.40;0.40;;;4.30;91.80;;;;;;5053012;28;20194;-71
2023/01/17 12:46:27;;;;;;;0.40;0.40;;;4.10;91.60;;;;;;5053123;28;20179;-70
2023/01/17 12:49:12;;;;;;;0.40;0.40;;;3.90;91.80;;;;;;5053156;28;20273;-73
2023/01/17 12:51:41;;;;;;;0.40;0.40;;;3.70;92.30;;;;;;5053076;28;20209;-69
2023/01/17 12:54:25;;;;;;;0.40;0.40;;;3.70;92.30;;;;;;5053436;28;20169;-69
2023/01/17 12:57:00;;;;;;;0.30;0.30;;;3.60;92.30;;;;;;5053264;28;20167;-70
2023/01/17 12:59:58;;;;;;;1.80;1.25;;;3.80;93.30;;;;;;5052978;28;20147;-72
2023/01/17 13:02:46;;;;;;;0.35;0.35;;;3.90;93.00;;;;;;5052967;28;20256;-72
2023/01/17 13:05:16;;;;;;;0.40;0.40;;;3.80;92.50;;;;;;5053026;28;20222;-71
2023/01/17 13:08:04;;;;;;;0.40;0.40;;;3.60;92.50;;;;;;5052953;28;20186;-72
2023/01/17 13:10:38;;;;;;;0.40;0.40;;;3.50;92.80;;;;;;5052728;28;20202;-70
2023/01/17 13:13:26;;;;;;;0.50;0.50;;;3.40;93.10;;;;;;5052707;28;20173;-71
2023/01/17 13:16:05;;;;;;;0.40;0.40;;;3.30;92.80;;;;;;5053224;28;20174;-70
2023/01/17 13:18:32;;;;;;;0.40;0.40;;;3.10;93.90;;;;;;5052971;28;20220;-72
2023/01/17 13:21:10;;;;;;;0.40;0.40;;;3.00;94.20;;;;;;5052578;28;20196;-71
2023/01/17 13:24:02;;;;;;;0.40;0.40;;;3.10;93.50;;;;;;5052920;28;20229;-71
2023/01/17 13:26:49;;;;;;;0.40;0.40;;;2.90;93.30;;;;;;5052994;28;20231;-72
2023/01/17 13:29:39;;;;;;;0.40;0.40;;;2.90;93.60;;;;;;5054164;28;20278;-69
2023/01/17 13:32:23;;;;;;;0.30;0.30;;;3.00;93.60;;;;;;5056098;28;20203;-72
2023/01/17 13:35:20;;;;;;;0.30;0.30;;;3.00;93.80;;;;;;5056206;28;20623;-71
2023/01/17 13:38:00;;;;;;;0.40;0.40;;;3.00;93.80;;;;;;5056363;28;20193;-70
2023/01/17 13:40:34;;;;;;;0.40;0.40;;;3.00;93.70;;;;;;5056341;28;20629;-70
2023/01/17 13:43:25;;;;;;;0.40;0.40;;;2.90;94.10;;;;;;5056083;28;20174;-71
2023/01/17 13:46:00;;;;;;;0.30;0.30;;;3.00;94.20;;;;;;5055990;28;20544;-72
2023/01/17 13:48:28;;;;;;;0.40;0.40;;;3.00;94.60;;;;;;5055892;28;20275;-70
2023/01/17 13:51:03;;;;;;;0.60;0.60;;;3.10;94.60;;;;;;5056067;28;20205;-71
2023/01/17 13:53:35;;;;;;;0.40;0.40;;;3.20;94.90;;;;;;5055933;28;20166;-70
2023/01/17 13:56:05;;;;;;;0.40;0.40;;;3.30;94.90;;;;;;5056093;28;20158;-69
2023/01/17 13:58:56;;;;;;;1.67;1.05;;;3.30;94.70;;;;;;5054472;28;20232;-72
2023/01/17 14:01:22;;;;;;;0.30;0.30;;;3.30;95.00;;;;;;5056072;28;20212;-73
2023/01/17 14:03:53;;;;;;;0.40;0.40;;;3.30;95.30;;;;;;5055667;28;20166;-71
2023/01/17 14:06:40;;;;;;;0.40;0.40;;;3.40;95.00;;;;;;5055859;28;20231;-72
2023/01/17 14:09:11;;;;;;;0.40;0.40;;;3.40;95.10;;;;;;5054492;28;20732;-73
2023/01/17 14:12:01;;;;;;;0.40;0.40;;;3.30;95.00;;;;;;5055438;28;20198;-69
2023/01/17 14:14:43;;;;;;;1.00;0.60;;;3.30;95.10;;;;;;5055652;28;20256;-72
2023/01/17 14:17:15;;;;;;;0.50;0.50;;;3.20;95.30;;;;;;5055344;28;20267;-73
2023/01/17 14:19:46;;;;;;;0.77;0.77;;;3.20;95.50;;;;;;5055300;28;20189;-69
2023/01/17 14:22:17;;;;;;;3.45;0.70;;;3.10;95.00;;;;;;5055231;28;20228;-72
2023/01/17 14:25:13;;;;;;;0.30;0.30;;;3.00;95.30;;;;;;5055378;28;20168;-70
2023/01/17 14:27:42;;;;;;;0.40;0.40;;;2.80;94.70;;;;;;5055426;28;20235;-71
2023/01/17 14:30:35;;;;;;;0.38;0.38;;;2.70;95.30;;;;;;5055093;28;20198;-72
2023/01/17 14:33:01;;;;;;;0.35;0.35;;;2.70;95.70;;;;;;5054115;28;20177;-72
2023/01/17 14:35:32;;;;;;;0.40;0.40;;;2.70;95.50;;;;;;5053987;28;20171;-72
2023/01/17 14:38:04;;;;;;;0.40;0.40;;;2.70;95.80;;;;;;5055046;28;20186;-71
2023/01/17 14:40:32;;;;;;;0.40;0.40;;;2.60;95.70;;;;;;5052906;28;20654;-70
2023/01/17 14:43:11;;;;;;;0.40;0.40;;;2.60;96.00;;;;;;5054781;28;20193;-71